Time;durP1;ratioP1;P1;durP2;ratioP2;P2;SDS_P1;SDS_P2;PMS_P1;PMS_P2;Temp;Humidity;BMP_temperature;BMP_pressure;BME280_temperature;BME280_humidity;BME280_pressure;Samples;Min_cycle;Max_cycle;Signal;HPM_P1;HPM_P2
2023/10/21 00:02:04;;;;;;;8.25;6.00;;;;;;;3.71;100.00;99056.09;5097832;27;20195;-73
2023/10/21 00:04:29;;;;;;;8.50;5.90;;;;;;;3.72;100.00;99060.44;5079076;27;20039;-72
2023/10/21 00:06:54;;;;;;;8.93;5.38;;;;;;;3.75;100.00;99062.06;5061656;27;20054;-69
2023/10/21 00:09:19;;;;;;;10.30;7.05;;;;;;;3.78;100.00;99059.25;5063876;28;20035;-70
2023/10/21 00:11:43;;;;;;;11.45;8.13;;;;;;;3.83;100.00;99070.44;5076762;28;20051;-70
2023/10/21 00:14:08;;;;;;;11.50;8.05;;;;;;;3.82;100.00;99068.72;5039489;28;20043;-71
2023/10/21 00:16:33;;;;;;;12.52;8.65;;;;;;;3.72;100.00;99063.09;5058796;28;20043;-70
2023/10/21 00:18:58;;;;;;;13.05;9.23;;;;;;;3.77;100.00;99057.56;5078437;27;20047;-71
2023/10/21 00:21:22;;;;;;;11.43;8.80;;;;;;;3.81;100.00;99067.88;5078409;27;20509;-71
2023/10/21 00:23:47;;;;;;;10.88;8.60;;;;;;;3.78;100.00;99083.00;5078571;27;20038;-71
2023/10/21 00:26:11;;;;;;;11.50;8.15;;;;;;;3.73;100.00;99095.53;5096135;27;20492;-68
2023/10/21 00:28:39;;;;;;;9.05;7.45;;;;;;;3.79;100.00;99104.00;5057828;28;20566;-72
2023/10/21 00:31:04;;;;;;;9.38;7.55;;;;;;;3.76;100.00;99103.28;5089250;27;20489;-69
2023/10/21 00:33:29;;;;;;;9.50;7.22;;;;;;;3.77;100.00;99105.00;5061661;27;20045;-67
2023/10/21 00:35:53;;;;;;;10.05;6.78;;;;;;;3.74;100.00;99108.66;5078795;27;20489;-67
2023/10/21 00:38:18;;;;;;;11.70;6.63;;;;;;;3.71;100.00;99100.91;5078472;27;20122;-66
2023/10/21 00:40:53;;;;;;;9.32;6.68;;;;;;;3.79;100.00;99111.06;5096670;27;20077;-67
2023/10/21 00:43:42;;;;;;;10.50;6.72;;;;;;;3.82;100.00;99106.47;5078571;27;20047;-68
2023/10/21 00:46:19;;;;;;;10.48;6.15;;;;;;;3.80;100.00;99115.41;5058095;28;20589;-70
2023/10/21 00:48:45;;;;;;;11.38;6.78;;;;;;;3.74;100.00;99113.91;5059528;27;20054;-69
2023/10/21 00:51:10;;;;;;;6.05;4.50;;;;;;;3.81;100.00;99117.09;5072855;27;20065;-66
2023/10/21 00:53:36;;;;;;;6.80;4.90;;;;;;;3.83;100.00;99113.47;5071056;27;20054;-72
2023/10/21 00:56:02;;;;;;;7.28;4.63;;;;;;;3.84;100.00;99104.59;5058518;28;20067;-73
2023/10/21 00:58:27;;;;;;;5.90;4.78;;;;;;;3.81;100.00;99117.09;5042234;28;20044;-73
2023/10/21 01:00:52;;;;;;;7.88;4.93;;;;;;;3.76;100.00;99116.47;5063619;27;20039;-72
2023/10/21 01:03:17;;;;;;;7.68;4.85;;;;;;;3.73;100.00;99114.00;5078938;27;20035;-72
2023/10/21 01:05:42;;;;;;;8.35;5.22;;;;;;;3.74;100.00;99113.91;5079048;27;20133;-73
2023/10/21 01:08:06;;;;;;;5.43;4.05;;;;;;;3.73;100.00;99112.22;5079328;27;20039;-74
2023/10/21 01:10:31;;;;;;;8.20;4.90;;;;;;;3.76;100.00;99113.84;5078648;27;20053;-72
2023/10/21 01:12:56;;;;;;;5.50;3.88;;;;;;;3.80;100.00;99118.03;5078276;27;20045;-73
2023/10/21 01:15:20;;;;;;;8.10;5.10;;;;;;;3.83;100.00;99112.59;5060651;27;20041;-73
2023/10/21 01:17:51;;;;;;;6.28;4.50;;;;;;;3.81;100.00;99119.75;5078688;27;20107;-73
2023/10/21 01:20:19;;;;;;;7.78;4.75;;;;;;;3.80;100.00;99129.44;5078962;27;20123;-72
2023/10/21 01:22:44;;;;;;;6.07;4.32;;;;;;;3.80;100.00;99121.53;5096287;27;20037;-68
2023/10/21 01:25:08;;;;;;;5.93;4.13;;;;;;;3.81;100.00;99131.16;5061068;27;20133;-67
2023/10/21 01:27:33;;;;;;;6.75;4.45;;;;;;;3.81;100.00;99128.50;5056776;28;20099;-65
2023/10/21 01:29:58;;;;;;;6.60;4.15;;;;;;;3.83;100.00;99124.00;5091002;27;20062;-67
2023/10/21 01:32:24;;;;;;;8.50;4.55;;;;;;;3.81;100.00;99128.50;5095492;27;20054;-67
2023/10/21 01:34:49;;;;;;;6.95;4.40;;;;;;;3.81;100.00;99131.16;5046641;27;20083;-67
2023/10/21 01:37:13;;;;;;;8.85;4.53;;;;;;;3.74;100.00;99129.75;5095534;27;20074;-66
2023/10/21 01:39:38;;;;;;;6.53;4.25;;;;;;;3.72;100.00;99134.25;5077218;27;20133;-66
2023/10/21 01:42:03;;;;;;;6.97;4.72;;;;;;;3.68;100.00;99135.34;5076542;27;20079;-64
2023/10/21 01:44:28;;;;;;;6.35;4.15;;;;;;;3.62;100.00;99144.41;5095328;27;20486;-64
2023/10/21 01:46:52;;;;;;;6.82;4.20;;;;;;;3.60;100.00;99141.03;5095285;27;20050;-64
2023/10/21 01:49:17;;;;;;;7.60;4.10;;;;;;;3.59;100.00;99141.94;5056468;28;20088;-63
2023/10/21 01:51:42;;;;;;;5.93;4.05;;;;;;;3.54;100.00;99137.81;5068725;28;20505;-64
2023/10/21 01:54:06;;;;;;;6.03;4.03;;;;;;;3.48;100.00;99138.16;5095107;27;20497;-65
2023/10/21 01:56:31;;;;;;;7.53;5.07;;;;;;;3.47;100.00;99147.84;5076900;28;20046;-65
2023/10/21 01:58:56;;;;;;;8.90;4.65;;;;;;;3.45;100.00;99148.84;5059876;28;20429;-65
2023/10/21 02:01:21;;;;;;;6.15;4.22;;;;;;;3.52;100.00;99152.84;5076816;28;20027;-63
2023/10/21 02:03:46;;;;;;;6.65;4.30;;;;;;;3.49;100.00;99145.97;5076813;28;20058;-65
2023/10/21 02:06:11;;;;;;;9.30;4.85;;;;;;;3.53;100.00;99154.56;5076819;28;20583;-66
2023/10/21 02:08:36;;;;;;;7.05;4.43;;;;;;;3.51;100.00;99145.88;5076480;28;20561;-64
2023/10/21 02:11:00;;;;;;;7.50;4.82;;;;;;;3.48;100.00;99144.28;5059235;28;20396;-65
2023/10/21 02:13:25;;;;;;;7.53;4.85;;;;;;;3.49;100.00;99145.13;5060000;28;20489;-67
2023/10/21 02:15:53;;;;;;;6.78;4.32;;;;;;;3.51;100.00;99143.25;5094946;28;20457;-65
2023/10/21 02:18:18;;;;;;;7.35;4.60;;;;;;;3.57;100.00;99156.97;5076724;28;20513;-66
2023/10/21 02:20:42;;;;;;;7.50;4.70;;;;;;;3.58;100.00;99149.94;5094655;28;20501;-64
2023/10/21 02:23:07;;;;;;;6.25;4.70;;;;;;;3.55;100.00;99160.63;5076727;28;20051;-64
2023/10/21 02:25:32;;;;;;;7.43;5.32;;;;;;;3.55;100.00;99173.78;5076353;28;20511;-63
2023/10/21 02:27:57;;;;;;;7.88;4.53;;;;;;;3.58;100.00;99177.13;5076452;28;20050;-63
2023/10/21 02:30:22;;;;;;;9.68;5.95;;;;;;;3.58;100.00;99182.41;5094750;27;20039;-65
2023/10/21 02:32:48;;;;;;;6.65;4.47;;;;;;;3.62;100.00;99188.34;5076194;28;20047;-65
2023/10/21 02:35:14;;;;;;;7.43;5.22;;;;;;;3.65;100.00;99190.84;5076551;28;20125;-64
2023/10/21 02:37:39;;;;;;;8.13;4.93;;;;;;;3.67;100.00;99196.91;5059373;27;20043;-64
2023/10/21 02:40:04;;;;;;;8.55;5.03;;;;;;;3.70;100.00;99196.75;5094810;28;20132;-67
2023/10/21 02:42:30;;;;;;;6.88;4.75;;;;;;;3.70;100.00;99194.13;5072039;28;20396;-66
2023/10/21 02:44:57;;;;;;;7.93;5.28;;;;;;;3.73;100.00;99201.84;5074862;28;20512;-67
2023/10/21 02:47:22;;;;;;;7.13;5.88;;;;;;;3.72;100.00;99200.16;5042508;28;20038;-66
2023/10/21 02:49:46;;;;;;;10.07;5.28;;;;;;;3.76;100.00;99206.13;5094399;28;20070;-66
2023/10/21 02:52:11;;;;;;;8.95;5.65;;;;;;;3.78;100.00;99201.63;5094764;27;20055;-66
2023/10/21 02:54:36;;;;;;;9.20;5.75;;;;;;;3.75;100.00;99207.03;5061306;27;20031;-67
2023/10/21 02:57:00;;;;;;;10.02;5.55;;;;;;;3.73;100.00;99201.84;5059489;28;20054;-68
2023/10/21 02:59:25;;;;;;;8.57;6.07;;;;;;;3.70;100.00;99206.44;5071274;27;20046;-67
2023/10/21 03:01:50;;;;;;;9.60;5.53;;;;;;;3.72;100.00;99200.16;5046107;28;20049;-67
2023/10/21 03:04:15;;;;;;;7.78;5.38;;;;;;;3.70;100.00;99207.28;5077876;28;20143;-65
2023/10/21 03:06:40;;;;;;;9.23;5.82;;;;;;;3.68;100.00;99192.47;5078037;28;20126;-66
2023/10/21 03:09:06;;;;;;;9.30;5.43;;;;;;;3.55;100.00;99197.50;5059823;28;20041;-66
2023/10/21 03:11:31;;;;;;;7.47;5.38;;;;;;;3.56;100.00;99215.03;5066820;27;20047;-65
2023/10/21 03:13:55;;;;;;;9.63;5.38;;;;;;;3.49;100.00;99206.59;5098228;27;20046;-65
2023/10/21 03:16:20;;;;;;;7.03;5.30;;;;;;;3.43;100.00;99212.16;5063216;27;20070;-68
2023/10/21 03:18:48;;;;;;;8.90;5.70;;;;;;;3.45;100.00;99217.34;5097971;27;20035;-68
2023/10/21 03:21:13;;;;;;;8.18;5.40;;;;;;;3.43;100.00;99208.66;5066223;27;20126;-70
2023/10/21 03:23:37;;;;;;;8.20;4.75;;;;;;;3.46;100.00;99225.19;5065364;27;20118;-68
2023/10/21 03:26:04;;;;;;;7.45;5.22;;;;;;;3.49;100.00;99218.91;5079647;27;20070;-69
2023/10/21 03:28:30;;;;;;;8.23;5.50;;;;;;;3.51;100.00;99220.53;5079538;27;20039;-68
2023/10/21 03:30:56;;;;;;;5.80;4.53;;;;;;;3.45;100.00;99228.75;5063780;28;20043;-68
2023/10/21 03:33:21;;;;;;;8.05;5.50;;;;;;;3.49;100.00;99235.56;5081425;27;20067;-69
2023/10/21 03:35:53;;;;;;;6.38;5.05;;;;;;;3.50;100.00;99236.44;5043541;28;20071;-67
2023/10/21 03:38:18;;;;;;;9.38;5.03;;;;;;;3.51;100.00;99235.47;5077468;28;20043;-67
2023/10/21 03:40:44;;;;;;;8.50;5.95;;;;;;;3.55;100.00;99237.03;5077305;28;20047;-68
2023/10/21 03:43:08;;;;;;;7.88;5.10;;;;;;;3.53;100.00;99231.84;5059067;28;20047;-67
2023/10/21 03:45:36;;;;;;;7.38;5.03;;;;;;;3.55;100.00;99230.00;5074962;27;20114;-67
2023/10/21 03:48:01;;;;;;;8.82;6.65;;;;;;;3.59;100.00;99234.19;5097617;27;20034;-67
2023/10/21 03:50:25;;;;;;;7.82;5.68;;;;;;;3.62;100.00;99247.19;5097368;27;20058;-67
2023/10/21 03:52:50;;;;;;;8.88;5.18;;;;;;;3.62;100.00;99251.63;5078890;27;20051;-67
2023/10/21 03:55:15;;;;;;;10.80;6.13;;;;;;;3.60;100.00;99259.63;5097677;27;20047;-67
2023/10/21 03:57:39;;;;;;;8.02;5.47;;;;;;;3.55;100.00;99250.22;5097330;27;20066;-66
2023/10/21 04:00:05;;;;;;;6.38;5.05;;;;;;;3.55;100.00;99252.84;5079490;27;20960;-66
2023/10/21 04:02:36;;;;;;;7.13;5.80;;;;;;;3.52;100.00;99259.13;5097333;27;20042;-67
2023/10/21 04:05:01;;;;;;;8.27;5.05;;;;;;;3.55;100.00;99263.41;5096938;27;20039;-67
2023/10/21 04:07:28;;;;;;;7.22;5.28;;;;;;;3.51;100.00;99269.72;5062756;27;20493;-68
2023/10/21 04:09:52;;;;;;;7.13;4.97;;;;;;;3.49;100.00;99267.19;5097620;27;20733;-67
2023/10/21 04:12:17;;;;;;;6.25;4.82;;;;;;;3.50;100.00;99262.78;5097168;27;20042;-67
2023/10/21 04:14:42;;;;;;;8.00;5.32;;;;;;;3.51;100.00;99270.59;5078777;27;20043;-68
2023/10/21 04:17:07;;;;;;;9.05;6.35;;;;;;;3.50;100.00;99279.41;5078496;27;20038;-68
2023/10/21 04:19:32;;;;;;;7.53;5.10;;;;;;;3.53;100.00;99271.38;5097047;27;20543;-68
2023/10/21 04:21:58;;;;;;;6.35;4.70;;;;;;;3.58;100.00;99292.25;5096907;27;20134;-67
2023/10/21 04:24:23;;;;;;;7.38;5.32;;;;;;;3.56;100.00;99289.69;5097107;27;20067;-70
2023/10/21 04:26:48;;;;;;;6.90;5.20;;;;;;;3.53;100.00;99294.25;5078470;27;20073;-68
2023/10/21 04:29:12;;;;;;;5.57;4.50;;;;;;;3.58;100.00;99294.88;5078364;27;20043;-67
2023/10/21 04:31:38;;;;;;;8.15;4.55;;;;;;;3.49;100.00;99282.16;5096460;27;20134;-67
2023/10/21 04:34:03;;;;;;;8.45;5.05;;;;;;;3.54;100.00;99298.59;5078183;27;20043;-67
2023/10/21 04:36:28;;;;;;;8.40;4.82;;;;;;;3.52;100.00;99308.34;5061563;27;20512;-68
2023/10/21 04:38:53;;;;;;;6.22;4.65;;;;;;;3.48;100.00;99301.53;5096697;27;20497;-67
2023/10/21 04:41:17;;;;;;;6.13;4.70;;;;;;;3.50;100.00;99311.03;5078213;27;20050;-68
2023/10/21 04:43:42;;;;;;;6.53;4.65;;;;;;;3.44;100.00;99306.09;5078128;27;20038;-66
2023/10/21 04:46:07;;;;;;;6.07;4.25;;;;;;;3.41;100.00;99314.13;5096469;27;20123;-67
2023/10/21 04:48:31;;;;;;;3.97;3.55;;;;;;;3.39;100.00;99308.06;5096228;27;20043;-65
2023/10/21 04:50:56;;;;;;;9.23;4.22;;;;;;;3.47;100.00;99310.34;5077746;27;20187;-67
2023/10/21 04:53:21;;;;;;;6.82;4.55;;;;;;;3.50;100.00;99313.69;5078297;27;20050;-66
2023/10/21 04:55:46;;;;;;;8.52;5.45;;;;;;;3.56;100.00;99313.41;5078214;27;20046;-67
2023/10/21 04:58:10;;;;;;;6.93;4.65;;;;;;;3.62;100.00;99321.00;5096458;27;20822;-66
2023/10/21 05:00:35;;;;;;;6.53;4.47;;;;;;;3.67;100.00;99327.84;5096184;27;20050;-68
2023/10/21 05:03:00;;;;;;;5.80;4.15;;;;;;;3.70;100.00;99323.28;5095955;27;20046;-70
2023/10/21 05:05:24;;;;;;;6.50;4.20;;;;;;;3.71;100.00;99322.38;5095832;27;20053;-68
2023/10/21 05:07:49;;;;;;;6.20;4.45;;;;;;;3.74;100.00;99330.09;5077932;27;20045;-69
2023/10/21 05:10:14;;;;;;;6.82;4.50;;;;;;;3.77;100.00;99337.88;5060886;27;20480;-68
2023/10/21 05:12:38;;;;;;;6.70;4.30;;;;;;;3.80;100.00;99336.88;5061231;27;20067;-69
2023/10/21 05:15:04;;;;;;;5.60;4.13;;;;;;;3.78;100.00;99339.56;5078071;27;20489;-70
2023/10/21 05:17:29;;;;;;;6.80;4.40;;;;;;;3.74;100.00;99339.78;5095426;27;20122;-69
2023/10/21 05:19:54;;;;;;;7.00;4.75;;;;;;;3.77;100.00;99343.13;5077666;27;20134;-69
2023/10/21 05:22:19;;;;;;;6.60;3.85;;;;;;;3.73;100.00;99336.28;5060627;27;20037;-69
2023/10/21 05:24:43;;;;;;;6.05;4.05;;;;;;;3.86;100.00;99358.50;5095781;27;20047;-68
2023/10/21 05:27:09;;;;;;;6.50;4.53;;;;;;;3.85;100.00;99353.31;5077467;27;20046;-70
2023/10/21 05:29:34;;;;;;;9.10;3.97;;;;;;;3.91;100.00;99361.78;5095684;27;20051;-69
2023/10/21 05:31:59;;;;;;;6.32;4.03;;;;;;;3.91;100.00;99359.16;5077121;27;20043;-70
2023/10/21 05:34:24;;;;;;;4.53;3.83;;;;;;;3.97;100.00;99363.25;5077390;27;20043;-70
2023/10/21 05:36:48;;;;;;;4.88;4.20;;;;;;;3.97;100.00;99369.38;5077147;27;20043;-70
2023/10/21 05:39:13;;;;;;;7.22;4.13;;;;;;;3.96;100.00;99362.41;5095918;27;20049;-69
2023/10/21 05:41:42;;;;;;;9.48;3.70;;;;;;;3.97;100.00;99369.38;5095624;27;20092;-69
2023/10/21 05:44:08;;;;;;;8.60;4.20;;;;;;;4.03;99.66;99360.34;5077716;27;20034;-69
2023/10/21 05:46:33;;;;;;;6.30;3.58;;;;;;;4.06;99.57;99362.81;5060123;27;20035;-69
2023/10/21 05:48:58;;;;;;;5.10;3.85;;;;;;;4.12;100.00;99362.50;5095451;27;20046;-69
2023/10/21 05:51:22;;;;;;;5.53;3.30;;;;;;;4.13;99.11;99355.44;5076864;27;20095;-69
2023/10/21 05:53:47;;;;;;;7.20;3.80;;;;;;;4.25;98.58;99381.22;5076936;27;20136;-68
2023/10/21 05:56:12;;;;;;;8.90;3.97;;;;;;;4.23;98.19;99365.47;5076982;28;20080;-68
2023/10/21 05:58:37;;;;;;;8.02;3.97;;;;;;;4.29;96.84;99380.13;5059950;28;20058;-66
2023/10/21 06:01:08;;;;;;;6.38;4.10;;;;;;;4.31;96.13;99388.81;5076895;28;20039;-67
2023/10/21 06:03:35;;;;;;;5.57;3.67;;;;;;;4.31;96.44;99387.03;5096313;28;20045;-67
2023/10/21 06:06:00;;;;;;;4.93;3.90;;;;;;;4.40;95.09;99387.53;5095667;27;20094;-68
2023/10/21 06:08:24;;;;;;;7.07;4.22;;;;;;;4.56;94.99;99404.28;5095071;28;20493;-67
2023/10/21 06:10:49;;;;;;;8.98;4.07;;;;;;;4.62;94.41;99394.28;5095088;28;20043;-68
2023/10/21 06:13:15;;;;;;;5.38;4.35;;;;;;;4.52;94.43;99387.72;5060281;28;20038;-67
2023/10/21 06:15:40;;;;;;;5.63;4.13;;;;;;;4.53;93.89;99402.63;5076731;28;20050;-67
2023/10/21 06:18:05;;;;;;;5.90;3.72;;;;;;;4.59;92.90;99412.06;5077066;28;20051;-68
2023/10/21 06:20:31;;;;;;;7.53;4.45;;;;;;;4.57;92.65;99413.91;5095442;27;20510;-67
2023/10/21 06:22:56;;;;;;;7.00;4.97;;;;;;;4.50;93.08;99418.66;5095499;27;20043;-68
2023/10/21 06:25:20;;;;;;;21.92;5.93;;;;;;;4.49;93.33;99424.00;5095708;28;20064;-68
2023/10/21 06:27:45;;;;;;;6.63;4.65;;;;;;;4.47;92.73;99426.72;5077191;27;20417;-68
2023/10/21 06:30:11;;;;;;;8.50;4.35;;;;;;;4.38;93.22;99427.19;5073826;27;20771;-68
2023/10/21 06:32:35;;;;;;;7.90;5.40;;;;;;;4.38;93.19;99437.75;5080951;27;20049;-68
2023/10/21 06:35:00;;;;;;;5.97;4.72;;;;;;;4.27;92.65;99433.00;5080532;27;20045;-68
2023/10/21 06:37:25;;;;;;;7.50;4.75;;;;;;;4.22;94.34;99436.78;5099085;27;20051;-69
2023/10/21 06:39:50;;;;;;;8.65;5.75;;;;;;;4.14;93.83;99431.88;5080592;27;20043;-68
2023/10/21 06:42:15;;;;;;;7.88;5.45;;;;;;;4.11;93.77;99433.81;5098740;27;20039;-67
2023/10/21 06:44:40;;;;;;;6.95;5.00;;;;;;;4.09;93.00;99433.00;5080484;27;20485;-68
2023/10/21 06:47:04;;;;;;;9.63;5.03;;;;;;;4.09;93.16;99435.66;5098860;27;20386;-69
2023/10/21 06:49:29;;;;;;;6.93;4.53;;;;;;;4.08;94.44;99431.31;5098381;27;20039;-69
2023/10/21 06:51:55;;;;;;;6.88;5.15;;;;;;;4.08;93.27;99432.16;5080215;27;20039;-68
2023/10/21 06:54:20;;;;;;;8.63;4.57;;;;;;;4.09;93.19;99436.50;5098456;27;20039;-68
2023/10/21 06:56:47;;;;;;;6.53;4.72;;;;;;;4.07;93.83;99440.16;5063301;27;20134;-69
2023/10/21 06:59:15;;;;;;;6.82;4.55;;;;;;;4.06;94.07;99438.47;5042913;28;20038;-70
2023/10/21 07:01:40;;;;;;;6.45;4.60;;;;;;;4.07;93.21;99448.91;5078158;28;20048;-70
2023/10/21 07:04:05;;;;;;;9.82;5.47;;;;;;;3.90;91.99;99441.81;5059865;28;20126;-68
2023/10/21 07:06:30;;;;;;;8.98;5.50;;;;;;;3.86;92.17;99456.06;5059908;28;20043;-71
2023/10/21 07:08:55;;;;;;;8.02;5.30;;;;;;;3.83;91.81;99458.03;5096105;27;20035;-69
2023/10/21 07:11:20;;;;;;;6.93;4.20;;;;;;;3.88;92.07;99459.50;5098076;27;20043;-71
2023/10/21 07:13:46;;;;;;;9.30;5.80;;;;;;;3.87;91.79;99467.47;5098345;27;20043;-70
2023/10/21 07:16:11;;;;;;;6.78;5.13;;;;;;;3.79;91.94;99462.56;5080044;27;20137;-70
2023/10/21 07:18:39;;;;;;;8.70;5.57;;;;;;;3.78;92.46;99483.72;5097950;27;20093;-69
2023/10/21 07:21:05;;;;;;;8.43;5.25;;;;;;;3.75;90.89;99479.44;5079655;27;20070;-70
2023/10/21 07:23:30;;;;;;;6.05;4.30;;;;;;;3.75;91.20;99481.22;5097885;27;20053;-69
2023/10/21 07:25:55;;;;;;;6.03;4.40;;;;;;;3.73;91.49;99481.28;5098124;27;20039;-69
2023/10/21 07:28:20;;;;;;;7.70;5.20;;;;;;;3.67;91.10;99475.47;5079301;27;20038;-67
2023/10/21 07:30:44;;;;;;;7.97;4.75;;;;;;;3.75;92.23;99490.00;5079303;27;20051;-66
2023/10/21 07:33:09;;;;;;;6.47;4.63;;;;;;;3.72;91.58;99484.88;5097781;27;20066;-66
2023/10/21 07:35:34;;;;;;;7.95;4.55;;;;;;;3.76;90.62;99489.06;5062372;27;20047;-66
2023/10/21 07:37:58;;;;;;;7.38;4.38;;;;;;;3.77;90.27;99493.41;5079603;27;20046;-66
2023/10/21 07:40:23;;;;;;;14.93;5.65;;;;;;;3.86;90.55;99508.81;5078651;27;20378;-66
2023/10/21 07:42:49;;;;;;;7.47;5.05;;;;;;;3.92;89.88;99507.69;5097612;27;20405;-66
2023/10/21 07:45:14;;;;;;;5.82;4.07;;;;;;;3.92;90.14;99499.78;5079632;27;20421;-65
2023/10/21 07:47:39;;;;;;;7.03;4.68;;;;;;;3.88;89.06;99504.31;5097651;27;20039;-68
2023/10/21 07:50:07;;;;;;;10.95;4.97;;;;;;;3.90;90.03;99509.53;5062110;27;20062;-70
2023/10/21 07:52:31;;;;;;;7.60;5.75;;;;;;;3.99;89.60;99502.03;5097502;27;20053;-70
2023/10/21 07:54:56;;;;;;;6.43;5.22;;;;;;;4.11;89.66;99503.25;5097809;27;20039;-71
2023/10/21 07:57:21;;;;;;;6.72;5.18;;;;;;;4.18;88.89;99509.06;5079038;27;20134;-71
2023/10/21 07:59:45;;;;;;;9.02;4.53;;;;;;;4.23;88.52;99515.00;5097497;27;20043;-70
2023/10/21 08:02:10;;;;;;;5.78;4.43;;;;;;;4.32;88.57;99528.59;5097272;27;20037;-70
2023/10/21 08:04:35;;;;;;;6.85;5.15;;;;;;;4.43;nan;99533.38;5078998;27;20043;-69
2023/10/21 08:06:59;;;;;;;4.78;3.97;;;;;;;4.43;87.78;99540.44;5096957;27;20493;-69
2023/10/21 08:09:24;;;;;;;5.88;4.10;;;;;;;4.47;87.51;99537.59;5061641;27;20107;-69
2023/10/21 08:11:49;;;;;;;6.63;4.22;;;;;;;4.51;85.85;99536.53;5097131;27;20051;-68
2023/10/21 08:14:14;;;;;;;5.22;3.95;;;;;;;4.47;85.62;99534.94;5097428;27;20134;-69
2023/10/21 08:16:39;;;;;;;5.88;3.80;;;;;;;4.61;85.91;99540.41;5097324;27;20083;-70
2023/10/21 08:19:05;;;;;;;6.43;4.20;;;;;;;4.70;86.55;99544.38;5097662;27;20129;-71
2023/10/21 08:21:30;;;;;;;5.30;4.25;;;;;;;4.78;85.80;99541.34;5096826;27;20037;-71
2023/10/21 08:23:54;;;;;;;9.38;4.60;;;;;;;4.92;85.46;99550.31;5096873;27;20043;-70
2023/10/21 08:26:19;;;;;;;7.78;4.20;;;;;;;5.06;84.99;99549.63;5096937;27;20043;-68
2023/10/21 08:28:43;;;;;;;9.02;4.35;;;;;;;5.29;84.83;99544.03;5077976;27;20126;-69
2023/10/21 08:31:08;;;;;;;5.72;4.43;;;;;;;5.64;83.53;99542.19;5078469;27;20042;-69
2023/10/21 08:33:33;;;;;;;6.28;3.85;;;;;;;6.13;82.19;99543.06;5061409;27;20043;-69
2023/10/21 08:35:58;;;;;;;4.88;4.10;;;;;;;6.54;80.35;99526.69;5061178;27;20434;-70
2023/10/21 08:38:22;;;;;;;5.78;4.40;;;;;;;6.90;79.03;99539.56;5078212;27;20470;-69
2023/10/21 08:40:47;;;;;;;7.10;4.32;;;;;;;7.69;77.01;99528.66;5044492;27;20039;-70
2023/10/21 08:43:18;;;;;;;7.32;4.65;;;;;;;9.01;74.28;99528.97;5096765;27;20051;-69
2023/10/21 08:45:44;;;;;;;6.55;3.80;;;;;;;9.86;69.94;99532.88;5096491;27;20053;-69
2023/10/21 08:48:12;;;;;;;5.82;3.80;;;;;;;10.06;67.30;99523.47;5077943;27;20047;-70
2023/10/21 08:50:39;;;;;;;5.30;4.63;;;;;;;10.59;65.36;99524.97;5060678;27;20500;-69
2023/10/21 08:53:06;;;;;;;5.85;4.10;;;;;;;11.08;62.89;99526.63;5060025;27;20039;-70
2023/10/21 08:55:37;;;;;;;4.15;3.38;;;;;;;10.60;60.35;99523.16;5078185;27;20114;-69
2023/10/21 08:58:02;;;;;;;8.07;3.80;;;;;;;10.17;60.52;99523.53;5077914;27;20074;-69
2023/10/21 09:00:27;;;;;;;5.40;4.22;;;;;;;10.11;60.99;99518.66;5096181;27;20070;-68
2023/10/21 09:02:51;;;;;;;5.50;3.83;;;;;;;10.14;61.24;99542.44;5096329;27;20042;-69
2023/10/21 09:05:16;;;;;;;8.43;4.82;;;;;;;10.17;60.43;99537.72;5096338;27;20066;-67
2023/10/21 09:07:45;;;;;;;6.80;3.60;;;;;;;10.03;60.61;99545.00;5095963;27;20404;-68
2023/10/21 09:10:11;;;;;;;4.85;3.90;;;;;;;9.78;60.21;99548.53;5096321;27;20441;-69
2023/10/21 09:12:37;;;;;;;7.25;4.57;;;;;;;9.43;60.01;99535.00;5095935;27;20413;-69
2023/10/21 09:15:05;;;;;;;6.18;4.00;;;;;;;8.82;60.04;99551.53;5095930;27;20046;-71
2023/10/21 09:17:35;;;;;;;5.32;4.10;;;;;;;8.41;61.71;99562.22;5096200;27;20084;-70
2023/10/21 09:20:00;;;;;;;9.13;4.70;;;;;;;8.04;62.28;99564.47;5077819;27;20035;-71
2023/10/21 09:22:27;;;;;;;4.35;3.95;;;;;;;7.67;63.35;99565.91;5077595;27;20035;-70
2023/10/21 09:25:28;;;;;;;7.63;4.47;;;;;;;7.58;64.59;99569.97;5077744;27;20043;-70
2023/10/21 09:27:55;;;;;;;7.28;5.15;;;;;;;7.31;66.30;99573.44;4999382;28;20384;-70
2023/10/21 09:30:22;;;;;;;6.00;4.45;;;;;;;7.17;66.61;99579.53;5032679;28;20052;-71
2023/10/21 09:32:47;;;;;;;7.38;4.72;;;;;;;7.05;67.21;99580.25;5016095;28;20110;-70
2023/10/21 09:35:25;;;;;;;5.80;4.65;;;;;;;6.98;68.54;99590.34;5032765;28;20052;-70
2023/10/21 09:37:50;;;;;;;7.63;5.03;;;;;;;6.77;68.72;99591.59;5016033;28;21150;-70
2023/10/21 09:40:15;;;;;;;8.93;4.78;;;;;;;6.62;69.42;99589.78;5015771;28;20086;-68
2023/10/21 09:42:44;;;;;;;8.55;4.90;;;;;;;6.50;70.44;99594.84;5015808;28;20052;-67
2023/10/21 09:45:11;;;;;;;7.30;4.80;;;;;;;6.41;70.71;99595.34;4999364;28;20074;-67
2023/10/21 09:47:40;;;;;;;7.90;4.95;;;;;;;6.28;70.94;99594.31;5015663;28;20048;-68
2023/10/21 09:50:10;;;;;;;7.38;4.70;;;;;;;6.13;72.00;99598.63;5032458;28;20048;-68
2023/10/21 09:52:54;;;;;;;9.05;5.38;;;;;;;6.06;71.91;99593.78;5015442;28;20060;-68
2023/10/21 09:55:24;;;;;;;9.00;4.80;;;;;;;5.87;73.03;99593.03;5032581;28;20060;-67
2023/10/21 09:57:54;;;;;;;5.53;4.07;;;;;;;5.73;72.56;99594.59;5032294;28;20630;-68
2023/10/21 10:00:19;;;;;;;7.35;4.40;;;;;;;5.65;72.51;99599.41;5032369;28;20050;-69
2023/10/21 10:02:47;;;;;;;9.38;5.05;;;;;;;5.65;73.02;99603.84;5050508;28;20051;-69
2023/10/21 10:05:13;;;;;;;6.60;4.60;;;;;;;5.72;72.85;99605.25;5056453;28;20097;-69
2023/10/21 10:07:40;;;;;;;5.47;4.25;;;;;;;5.74;73.67;99611.31;5075107;28;20097;-69
2023/10/21 10:10:12;;;;;;;6.22;4.65;;;;;;;5.70;73.64;99602.69;5039695;28;20074;-68
2023/10/21 10:12:41;;;;;;;6.18;4.35;;;;;;;5.75;73.72;99607.75;5074639;28;20413;-69
2023/10/21 10:15:28;;;;;;;5.95;4.22;;;;;;;5.86;74.09;99623.91;5056354;28;20134;-69
2023/10/21 10:17:53;;;;;;;7.50;5.22;;;;;;;5.82;73.84;99625.00;5067950;28;20037;-68
2023/10/21 10:20:22;;;;;;;8.13;4.85;;;;;;;5.83;74.24;99624.06;5059195;28;20474;-68
2023/10/21 10:22:54;;;;;;;9.40;4.80;;;;;;;5.84;75.19;99618.69;5094846;28;20546;-67
2023/10/21 10:25:33;;;;;;;8.23;4.78;;;;;;;6.05;74.95;99607.94;5076516;28;20047;-70
2023/10/21 10:28:05;;;;;;;5.55;4.80;;;;;;;6.25;74.87;99617.44;5094967;28;20042;-69
2023/10/21 10:30:31;;;;;;;5.60;4.25;;;;;;;6.30;74.67;99613.63;5094823;28;20417;-69
2023/10/21 10:32:57;;;;;;;8.85;4.75;;;;;;;6.32;74.52;99610.91;5094812;28;20400;-68
2023/10/21 10:35:30;;;;;;;8.32;4.85;;;;;;;6.31;73.91;99622.41;5055678;28;20035;-68
2023/10/21 10:37:55;;;;;;;6.80;5.03;;;;;;;6.13;73.87;99616.31;5056344;28;20130;-69
2023/10/21 10:40:31;;;;;;;7.07;4.43;;;;;;;6.09;74.02;99617.44;5073080;28;20153;-69
2023/10/21 10:42:56;;;;;;;5.35;4.07;;;;;;;5.96;74.18;99630.47;5056832;28;20070;-69
2023/10/21 10:45:21;;;;;;;6.78;4.82;;;;;;;5.84;74.30;99626.63;5074437;28;20071;-69
2023/10/21 10:47:45;;;;;;;6.50;4.70;;;;;;;5.81;75.14;99626.78;5074343;28;20043;-69
2023/10/21 10:50:19;;;;;;;7.50;5.15;;;;;;;5.83;75.63;99634.66;5074249;28;20054;-69
2023/10/21 10:52:43;;;;;;;6.40;4.35;;;;;;;5.81;75.84;99641.81;5036725;28;20048;-69
2023/10/21 10:55:11;;;;;;;7.40;4.65;;;;;;;5.75;76.03;99632.41;5074287;28;20040;-69
2023/10/21 10:57:36;;;;;;;8.00;4.50;;;;;;;5.68;76.28;99640.72;5039292;28;20126;-68
2023/10/21 11:00:03;;;;;;;7.30;5.40;;;;;;;5.60;76.55;99635.84;5055993;28;20412;-68
2023/10/21 11:02:41;;;;;;;7.15;5.00;;;;;;;5.61;76.03;99637.53;5045340;28;20043;-68
2023/10/21 11:05:06;;;;;;;6.43;4.40;;;;;;;5.52;76.24;99634.53;5063950;28;20042;-68
2023/10/21 11:07:31;;;;;;;6.57;4.70;;;;;;;5.51;75.78;99640.75;5067670;28;20050;-67
2023/10/21 11:10:00;;;;;;;6.95;4.57;;;;;;;5.53;75.52;99646.81;5077272;28;20044;-70
2023/10/21 11:12:27;;;;;;;6.55;4.10;;;;;;;5.41;75.39;99638.56;5073922;28;20043;-68
2023/10/21 11:14:52;;;;;;;5.82;4.53;;;;;;;5.47;75.65;99653.25;5039853;28;20085;-67
2023/10/21 11:17:17;;;;;;;8.45;4.60;;;;;;;5.45;75.36;99653.31;5083991;27;20043;-68
2023/10/21 11:19:42;;;;;;;4.90;3.58;;;;;;;5.48;75.66;99663.75;5079990;27;20060;-67
2023/10/21 11:22:19;;;;;;;4.95;3.70;;;;;;;5.50;75.54;99668.13;5098295;27;20178;-66
2023/10/21 11:24:43;;;;;;;4.43;3.92;;;;;;;5.39;75.17;99672.16;5097242;27;20059;-70
2023/10/21 11:27:08;;;;;;;4.70;3.60;;;;;;;5.32;74.50;99670.72;5077823;28;20078;-66
2023/10/21 11:29:34;;;;;;;4.63;3.70;;;;;;;5.27;74.30;99671.91;5060091;28;20508;-69
2023/10/21 11:31:59;;;;;;;4.07;3.20;;;;;;;5.38;73.36;99683.66;5081401;27;20044;-66